createdAt,value
2022-10-21T00:13:00.000Z,14.44
2022-10-21T00:27:37.000Z,14.31
2022-10-21T00:42:17.000Z,14.29
2022-10-21T00:56:55.000Z,14.22
2022-10-21T01:11:34.000Z,14.13
2022-10-21T01:26:13.000Z,13.95
2022-10-21T01:40:52.000Z,13.94
2022-10-21T01:55:31.000Z,14.27
2022-10-21T02:10:10.000Z,14.18
2022-10-21T02:24:46.000Z,14.05
2022-10-21T02:39:25.000Z,14.08
2022-10-21T02:54:04.000Z,13.99
2022-10-21T03:08:43.000Z,13.7
2022-10-21T03:23:21.000Z,13.81
2022-10-21T03:38:00.000Z,13.82
2022-10-21T03:52:39.000Z,13.92
2022-10-21T04:07:16.000Z,13.82
2022-10-21T04:21:56.000Z,13.94
2022-10-21T04:36:35.000Z,14.19
2022-10-21T04:51:14.000Z,14.12
2022-10-21T05:05:53.000Z,14.34
2022-10-21T05:20:31.000Z,14.51
2022-10-21T05:35:10.000Z,14.52
2022-10-21T05:49:49.000Z,14.52
2022-10-21T06:04:18.000Z,14.65
2022-10-21T06:18:56.000Z,14.55
2022-10-21T06:33:38.000Z,14.81
2022-10-21T06:48:08.000Z,14.93
2022-10-21T07:02:47.000Z,15.04
2022-10-21T07:17:28.000Z,15.08
2022-10-21T07:32:09.000Z,15
2022-10-21T07:46:41.000Z,15.06
2022-10-21T08:01:16.000Z,15.14
2022-10-21T08:15:56.000Z,14.96
2022-10-21T08:30:36.000Z,14.98
2022-10-21T08:45:14.000Z,15.13
2022-10-21T08:59:52.000Z,15.19
2022-10-21T09:14:32.000Z,15.16
2022-10-21T09:29:09.000Z,15.37
2022-10-21T09:43:48.000Z,15.48
2022-10-21T09:58:26.000Z,15.69
2022-10-21T10:13:06.000Z,15.6
2022-10-21T10:27:45.000Z,15.63
2022-10-21T10:42:23.000Z,15.96
2022-10-21T10:57:02.000Z,16.21
2022-10-21T11:11:41.000Z,16.19
2022-10-21T11:26:20.000Z,17.74
2022-10-21T11:41:02.000Z,18.27
2022-10-21T11:55:52.000Z,22.17
2022-10-21T12:00:48.000Z,23.11
2022-10-21T12:05:45.000Z,24.18
2022-10-21T12:10:39.000Z,22.23
2022-10-21T12:15:34.000Z,24.9
2022-10-21T12:20:30.000Z,25.21
2022-10-21T12:25:26.000Z,23.87
2022-10-21T12:30:21.000Z,25.62
2022-10-21T12:35:15.000Z,21.5
2022-10-21T12:40:09.000Z,20.06
2022-10-21T12:45:02.000Z,22
2022-10-21T12:49:56.000Z,19.89
2022-10-21T12:54:50.000Z,18.86
2022-10-21T12:59:44.000Z,17.76
2022-10-21T13:04:38.000Z,17.95
2022-10-21T13:09:32.000Z,17.94
2022-10-21T13:14:26.000Z,17.79
2022-10-21T13:19:20.000Z,17.86
2022-10-21T13:24:14.000Z,18.05
2022-10-21T13:29:09.000Z,17.88
2022-10-21T13:34:04.000Z,17.74
2022-10-21T13:38:58.000Z,17.68
2022-10-21T13:43:52.000Z,17.72
2022-10-21T13:48:47.000Z,17.66
2022-10-21T14:03:26.000Z,17.53
2022-10-21T14:17:59.000Z,20.68
2022-10-21T14:22:55.000Z,20.93
2022-10-21T14:27:50.000Z,19.37
2022-10-21T14:32:45.000Z,19.16
2022-10-21T14:37:39.000Z,18.53
2022-10-21T14:42:33.000Z,18.22
2022-10-21T14:47:28.000Z,18.26
2022-10-21T15:02:02.000Z,18.02
2022-10-21T15:06:57.000Z,17.96
2022-10-21T15:11:51.000Z,18.07
2022-10-21T15:16:46.000Z,18.1
2022-10-21T15:31:23.000Z,17.63
2022-10-21T15:46:00.000Z,17.3
2022-10-21T16:00:39.000Z,17.3
2022-10-21T16:15:19.000Z,17.14
2022-10-21T16:29:53.000Z,16.79
2022-10-21T16:44:24.000Z,16.46
2022-10-21T16:59:02.000Z,15.99
2022-10-21T17:13:41.000Z,15.77
2022-10-21T17:28:09.000Z,15.48
2022-10-21T17:42:47.000Z,15.82
2022-10-21T18:12:04.000Z,16.24
2022-10-21T18:26:43.000Z,16.34
2022-10-21T18:41:22.000Z,16.34
2022-10-21T18:56:01.000Z,16.36
2022-10-21T19:10:41.000Z,16.4
2022-10-21T19:25:20.000Z,16.54
2022-10-21T19:39:55.000Z,16.2
2022-10-21T19:54:33.000Z,16.09
2022-10-21T20:09:11.000Z,15.84
2022-10-21T20:23:47.000Z,15.52
2022-10-21T20:38:27.000Z,15.66
2022-10-21T20:53:05.000Z,15.76
2022-10-21T21:07:43.000Z,15.7
2022-10-21T21:22:20.000Z,15.59
2022-10-21T21:36:58.000Z,15.24
2022-10-21T21:51:37.000Z,14.83
2022-10-21T22:06:18.000Z,14.47
2022-10-21T22:20:56.000Z,14.42
2022-10-21T22:35:35.000Z,14.62
2022-10-21T22:50:15.000Z,14.37
2022-10-21T23:04:55.000Z,14.38
2022-10-21T23:19:34.000Z,14.45
2022-10-21T23:34:12.000Z,14.36
2022-10-21T23:48:51.000Z,14.18
